sensor_id;sensor_type;location;lat;lon;timestamp;pressure;altitude;pressure_sealevel;temperature;humidity
46087;BME280;31824;49.648;8.640;2023-02-01T00:02:45;100965.38;;;4.52;100.00
46087;BME280;31824;49.648;8.640;2023-02-01T00:05:55;100961.69;;;4.57;100.00
46087;BME280;31824;49.648;8.640;2023-02-01T00:08:57;100958.34;;;4.58;100.00
46087;BME280;31824;49.648;8.640;2023-02-01T00:11:59;100960.16;;;4.52;100.00
46087;BME280;31824;49.648;8.640;2023-02-01T00:15:05;100960.56;;;4.55;100.00
46087;BME280;31824;49.648;8.640;2023-02-01T00:18:07;100962.38;;;4.49;100.00
46087;BME280;31824;49.648;8.640;2023-02-01T00:21:09;100955.31;;;4.48;100.00
46087;BME280;31824;49.648;8.640;2023-02-01T00:24:11;100958.06;;;4.42;100.00
46087;BME280;31824;49.648;8.640;2023-02-01T00:27:13;100938.72;;;4.40;100.00
46087;BME280;31824;49.648;8.640;2023-02-01T00:30:20;100947.25;;;4.39;100.00
46087;BME280;31824;49.648;8.640;2023-02-01T00:33:22;100944.09;;;4.42;100.00
46087;BME280;31824;49.648;8.640;2023-02-01T00:36:24;100952.09;;;4.43;100.00
46087;BME280;31824;49.648;8.640;2023-02-01T00:39:25;100955.66;;;4.44;100.00
46087;BME280;31824;49.648;8.640;2023-02-01T00:42:27;100949.91;;;4.46;100.00
46087;BME280;31824;49.648;8.640;2023-02-01T00:45:31;100956.84;;;4.53;100.00
46087;BME280;31824;49.648;8.640;2023-02-01T00:48:53;100949.81;;;4.59;100.00
46087;BME280;31824;49.648;8.640;2023-02-01T00:51:55;100953.75;;;4.63;100.00
46087;BME280;31824;49.648;8.640;2023-02-01T00:54:57;100947.22;;;4.66;100.00
46087;BME280;31824;49.648;8.640;2023-02-01T00:57:59;100949.66;;;4.65;100.00
46087;BME280;31824;49.648;8.640;2023-02-01T01:01:04;100956.38;;;4.70;100.00
46087;BME280;31824;49.648;8.640;2023-02-01T01:04:08;100947.13;;;4.72;100.00
46087;BME280;31824;49.648;8.640;2023-02-01T01:07:09;100951.75;;;4.74;100.00
46087;BME280;31824;49.648;8.640;2023-02-01T01:10:11;100950.66;;;4.80;100.00
46087;BME280;31824;49.648;8.640;2023-02-01T01:13:13;100937.28;;;4.77;100.00
46087;BME280;31824;49.648;8.640;2023-02-01T01:16:17;100936.34;;;4.76;100.00
46087;BME280;31824;49.648;8.640;2023-02-01T01:19:19;100927.78;;;4.77;100.00
46087;BME280;31824;49.648;8.640;2023-02-01T01:22:20;100918.31;;;4.78;100.00
46087;BME280;31824;49.648;8.640;2023-02-01T01:25:22;100926.69;;;4.82;100.00
46087;BME280;31824;49.648;8.640;2023-02-01T01:28:24;100922.56;;;4.77;100.00
46087;BME280;31824;49.648;8.640;2023-02-01T01:31:27;100924.81;;;4.81;100.00
46087;BME280;31824;49.648;8.640;2023-02-01T01:34:29;100938.44;;;4.86;100.00
46087;BME280;31824;49.648;8.640;2023-02-01T01:37:31;100932.69;;;4.88;100.00
46087;BME280;31824;49.648;8.640;2023-02-01T01:40:33;100932.50;;;4.87;100.00
46087;BME280;31824;49.648;8.640;2023-02-01T01:43:56;100918.34;;;4.85;100.00
46087;BME280;31824;49.648;8.640;2023-02-01T01:47:01;100918.69;;;4.81;100.00
46087;BME280;31824;49.648;8.640;2023-02-01T01:50:06;100910.88;;;4.81;100.00
46087;BME280;31824;49.648;8.640;2023-02-01T01:53:38;100908.44;;;4.75;100.00
46087;BME280;31824;49.648;8.640;2023-02-01T01:56:43;100907.50;;;4.74;100.00
46087;BME280;31824;49.648;8.640;2023-02-01T01:59:51;100909.19;;;4.81;100.00
46087;BME280;31824;49.648;8.640;2023-02-01T02:03:00;100904.56;;;4.79;100.00
46087;BME280;31824;49.648;8.640;2023-02-01T02:06:11;100904.34;;;4.77;100.00
46087;BME280;31824;49.648;8.640;2023-02-01T02:09:17;100901.81;;;4.92;100.00
46087;BME280;31824;49.648;8.640;2023-02-01T02:12:18;100899.38;;;4.86;100.00
46087;BME280;31824;49.648;8.640;2023-02-01T02:15:20;100894.91;;;4.85;100.00
46087;BME280;31824;49.648;8.640;2023-02-01T02:18:27;100888.47;;;4.96;100.00
46087;BME280;31824;49.648;8.640;2023-02-01T02:21:48;100883.06;;;5.01;100.00
46087;BME280;31824;49.648;8.640;2023-02-01T02:25:12;100877.31;;;4.97;100.00
46087;BME280;31824;49.648;8.640;2023-02-01T02:28:30;100873.00;;;4.90;100.00
46087;BME280;31824;49.648;8.640;2023-02-01T02:31:47;100877.47;;;4.91;100.00
46087;BME280;31824;49.648;8.640;2023-02-01T02:35:02;100876.72;;;4.92;100.00
46087;BME280;31824;49.648;8.640;2023-02-01T02:38:13;100866.50;;;4.94;100.00
46087;BME280;31824;49.648;8.640;2023-02-01T02:41:25;100848.44;;;4.88;100.00
46087;BME280;31824;49.648;8.640;2023-02-01T02:44:51;100841.03;;;4.91;100.00
46087;BME280;31824;49.648;8.640;2023-02-01T02:48:17;100849.22;;;4.94;100.00
46087;BME280;31824;49.648;8.640;2023-02-01T02:51:25;100850.84;;;4.86;100.00
46087;BME280;31824;49.648;8.640;2023-02-01T02:54:49;100854.19;;;4.85;100.00
46087;BME280;31824;49.648;8.640;2023-02-01T02:57:54;100854.75;;;4.83;100.00
46087;BME280;31824;49.648;8.640;2023-02-01T03:01:16;100852.88;;;4.82;100.00
46087;BME280;31824;49.648;8.640;2023-02-01T03:04:37;100857.13;;;4.81;100.00
46087;BME280;31824;49.648;8.640;2023-02-01T03:08:03;100861.25;;;4.79;100.00
46087;BME280;31824;49.648;8.640;2023-02-01T03:11:08;100855.50;;;4.82;100.00
46087;BME280;31824;49.648;8.640;2023-02-01T03:14:12;100861.06;;;4.85;100.00
46087;BME280;31824;49.648;8.640;2023-02-01T03:17:19;100852.88;;;4.82;100.00
46087;BME280;31824;49.648;8.640;2023-02-01T03:20:24;100856.41;;;4.82;100.00
46087;BME280;31824;49.648;8.640;2023-02-01T03:23:30;100851.03;;;4.81;100.00
46087;BME280;31824;49.648;8.640;2023-02-01T03:26:36;100841.34;;;4.80;100.00
46087;BME280;31824;49.648;8.640;2023-02-01T03:29:45;100850.03;;;4.73;100.00
46087;BME280;31824;49.648;8.640;2023-02-01T03:32:54;100845.97;;;4.68;100.00
46087;BME280;31824;49.648;8.640;2023-02-01T03:36:18;100848.56;;;4.68;100.00
46087;BME280;31824;49.648;8.640;2023-02-01T03:39:30;100841.28;;;4.65;100.00
46087;BME280;31824;49.648;8.640;2023-02-01T03:42:36;100834.56;;;4.60;100.00
46087;BME280;31824;49.648;8.640;2023-02-01T03:45:41;100848.50;;;4.61;100.00
46087;BME280;31824;49.648;8.640;2023-02-01T03:48:44;100850.72;;;4.57;100.00
46087;BME280;31824;49.648;8.640;2023-02-01T03:51:47;100860.59;;;4.60;100.00
46087;BME280;31824;49.648;8.640;2023-02-01T03:54:52;100853.50;;;4.59;100.00
46087;BME280;31824;49.648;8.640;2023-02-01T03:57:58;100861.69;;;4.55;100.00
46087;BME280;31824;49.648;8.640;2023-02-01T04:01:01;100865.00;;;4.54;100.00
46087;BME280;31824;49.648;8.640;2023-02-01T04:04:06;100861.50;;;4.53;100.00
46087;BME280;31824;49.648;8.640;2023-02-01T04:07:08;100872.44;;;4.51;100.00
46087;BME280;31824;49.648;8.640;2023-02-01T04:10:11;100884.34;;;4.49;100.00
46087;BME280;31824;49.648;8.640;2023-02-01T04:13:13;100878.38;;;4.50;100.00
46087;BME280;31824;49.648;8.640;2023-02-01T04:16:15;100890.16;;;4.33;100.00
46087;BME280;31824;49.648;8.640;2023-02-01T04:19:17;100879.22;;;4.36;100.00
46087;BME280;31824;49.648;8.640;2023-02-01T04:22:19;100873.25;;;4.30;100.00
46087;BME280;31824;49.648;8.640;2023-02-01T04:25:22;100885.69;;;4.32;100.00
46087;BME280;31824;49.648;8.640;2023-02-01T04:28:24;100877.69;;;4.31;100.00
46087;BME280;31824;49.648;8.640;2023-02-01T04:31:45;100876.78;;;4.30;100.00
46087;BME280;31824;49.648;8.640;2023-02-01T04:34:47;100877.16;;;4.33;100.00
46087;BME280;31824;49.648;8.640;2023-02-01T04:37:49;100879.75;;;4.33;100.00
46087;BME280;31824;49.648;8.640;2023-02-01T04:40:52;100882.00;;;4.37;100.00
46087;BME280;31824;49.648;8.640;2023-02-01T04:43:54;100877.94;;;4.39;100.00
46087;BME280;31824;49.648;8.640;2023-02-01T04:46:55;100872.94;;;4.41;100.00
46087;BME280;31824;49.648;8.640;2023-02-01T04:49:57;100877.19;;;4.40;100.00
46087;BME280;31824;49.648;8.640;2023-02-01T04:52:59;100870.00;;;4.45;100.00
46087;BME280;31824;49.648;8.640;2023-02-01T04:56:02;100870.00;;;4.45;100.00
46087;BME280;31824;49.648;8.640;2023-02-01T04:59:04;100867.38;;;4.45;100.00
46087;BME280;31824;49.648;8.640;2023-02-01T05:02:06;100860.31;;;4.44;100.00
46087;BME280;31824;49.648;8.640;2023-02-01T05:05:08;100872.41;;;4.44;100.00
46087;BME280;31824;49.648;8.640;2023-02-01T05:08:10;100875.38;;;4.47;100.00
46087;BME280;31824;49.648;8.640;2023-02-01T05:11:14;100879.44;;;4.45;100.00
46087;BME280;31824;49.648;8.640;2023-02-01T05:14:34;100884.41;;;4.70;100.00
46087;BME280;31824;49.648;8.640;2023-02-01T05:17:36;100887.03;;;4.70;100.00
46087;BME280;31824;49.648;8.640;2023-02-01T05:20:38;100892.28;;;4.78;100.00
46087;BME280;31824;49.648;8.640;2023-02-01T05:23:40;100894.84;;;4.70;100.00
46087;BME280;31824;49.648;8.640;2023-02-01T05:27:02;100885.56;;;4.72;100.00
46087;BME280;31824;49.648;8.640;2023-02-01T05:30:05;100881.53;;;4.82;100.00
46087;BME280;31824;49.648;8.640;2023-02-01T05:33:08;100880.38;;;4.80;100.00
46087;BME280;31824;49.648;8.640;2023-02-01T05:36:09;100875.34;;;4.74;100.00
46087;BME280;31824;49.648;8.640;2023-02-01T05:39:11;100869.22;;;4.73;100.00
46087;BME280;31824;49.648;8.640;2023-02-01T05:42:15;100855.25;;;4.73;100.00
46087;BME280;31824;49.648;8.640;2023-02-01T05:45:16;100845.72;;;4.66;100.00
46087;BME280;31824;49.648;8.640;2023-02-01T05:48:18;100847.97;;;4.63;100.00
46087;BME280;31824;49.648;8.640;2023-02-01T05:51:20;100839.41;;;4.64;100.00
46087;BME280;31824;49.648;8.640;2023-02-01T05:54:21;100837.38;;;4.62;100.00
46087;BME280;31824;49.648;8.640;2023-02-01T05:57:25;100841.28;;;4.65;100.00
46087;BME280;31824;49.648;8.640;2023-02-01T06:00:26;100840.88;;;4.62;100.00
46087;BME280;31824;49.648;8.640;2023-02-01T06:03:29;100847.41;;;4.59;100.00
46087;BME280;31824;49.648;8.640;2023-02-01T06:06:31;100850.19;;;4.60;100.00
46087;BME280;31824;49.648;8.640;2023-02-01T06:09:33;100855.03;;;4.64;100.00
46087;BME280;31824;49.648;8.640;2023-02-01T06:12:36;100861.75;;;4.69;100.00
46087;BME280;31824;49.648;8.640;2023-02-01T06:15:38;100859.88;;;4.68;100.00
46087;BME280;31824;49.648;8.640;2023-02-01T06:18:40;100857.63;;;4.64;100.00
46087;BME280;31824;49.648;8.640;2023-02-01T06:21:42;100855.22;;;4.66;100.00
46087;BME280;31824;49.648;8.640;2023-02-01T06:24:44;100849.28;;;4.67;100.00
46087;BME280;31824;49.648;8.640;2023-02-01T06:28:07;100842.38;;;4.60;100.00
46087;BME280;31824;49.648;8.640;2023-02-01T06:31:09;100847.19;;;4.57;100.00
46087;BME280;31824;49.648;8.640;2023-02-01T06:34:11;100843.66;;;4.56;100.00
46087;BME280;31824;49.648;8.640;2023-02-01T06:37:13;100853.88;;;4.55;100.00
46087;BME280;31824;49.648;8.640;2023-02-01T06:40:15;100844.78;;;4.59;100.00
46087;BME280;31824;49.648;8.640;2023-02-01T06:43:18;100858.91;;;4.61;100.00
46087;BME280;31824;49.648;8.640;2023-02-01T06:46:20;100858.19;;;4.62;100.00
46087;BME280;31824;49.648;8.640;2023-02-01T06:49:22;100868.97;;;4.65;100.00
46087;BME280;31824;49.648;8.640;2023-02-01T06:52:23;100861.00;;;4.70;100.00
46087;BME280;31824;49.648;8.640;2023-02-01T06:55:25;100851.91;;;4.67;100.00
46087;BME280;31824;49.648;8.640;2023-02-01T06:58:30;100844.63;;;4.64;100.00
46087;BME280;31824;49.648;8.640;2023-02-01T07:01:32;100863.38;;;4.62;100.00
46087;BME280;31824;49.648;8.640;2023-02-01T07:04:34;100871.91;;;4.61;100.00
46087;BME280;31824;49.648;8.640;2023-02-01T07:07:36;100876.59;;;4.63;100.00
46087;BME280;31824;49.648;8.640;2023-02-01T07:10:38;100875.25;;;4.60;100.00
46087;BME280;31824;49.648;8.640;2023-02-01T07:13:41;100863.94;;;4.59;100.00
46087;BME280;31824;49.648;8.640;2023-02-01T07:16:43;100862.25;;;5.08;100.00
46087;BME280;31824;49.648;8.640;2023-02-01T07:19:45;100865.16;;;4.83;100.00
46087;BME280;31824;49.648;8.640;2023-02-01T07:22:46;100861.22;;;4.72;100.00
46087;BME280;31824;49.648;8.640;2023-02-01T07:25:48;100855.78;;;4.70;100.00
46087;BME280;31824;49.648;8.640;2023-02-01T07:28:52;100857.25;;;4.61;100.00
46087;BME280;31824;49.648;8.640;2023-02-01T07:31:54;100862.69;;;4.35;100.00
46087;BME280;31824;49.648;8.640;2023-02-01T07:34:56;100873.78;;;4.27;100.00
46087;BME280;31824;49.648;8.640;2023-02-01T07:37:58;100862.84;;;4.30;100.00
46087;BME280;31824;49.648;8.640;2023-02-01T07:41:01;100867.63;;;4.27;100.00
46087;BME280;31824;49.648;8.640;2023-02-01T07:44:05;100869.31;;;4.26;100.00
46087;BME280;31824;49.648;8.640;2023-02-01T07:47:07;100872.84;;;4.27;100.00
46087;BME280;31824;49.648;8.640;2023-02-01T07:50:09;100885.81;;;4.19;100.00
46087;BME280;31824;49.648;8.640;2023-02-01T07:53:11;100888.44;;;4.27;100.00
46087;BME280;31824;49.648;8.640;2023-02-01T07:56:15;100890.69;;;4.31;100.00
46087;BME280;31824;49.648;8.640;2023-02-01T07:59:18;100905.38;;;4.30;100.00
46087;BME280;31824;49.648;8.640;2023-02-01T08:02:20;100907.78;;;4.29;100.00
46087;BME280;31824;49.648;8.640;2023-02-01T08:05:22;100910.78;;;4.32;100.00
46087;BME280;31824;49.648;8.640;2023-02-01T08:08:23;100914.88;;;4.30;100.00
46087;BME280;31824;49.648;8.640;2023-02-01T08:11:26;100926.38;;;4.32;100.00
46087;BME280;31824;49.648;8.640;2023-02-01T08:14:29;100919.78;;;4.41;100.00
46087;BME280;31824;49.648;8.640;2023-02-01T08:17:31;100925.00;;;4.48;100.00
46087;BME280;31824;49.648;8.640;2023-02-01T08:20:33;100923.75;;;4.52;100.00
46087;BME280;31824;49.648;8.640;2023-02-01T08:23:38;100924.09;;;4.48;100.00
46087;BME280;31824;49.648;8.640;2023-02-01T08:26:41;100927.75;;;4.43;100.00
46087;BME280;31824;49.648;8.640;2023-02-01T08:29:44;100930.75;;;4.46;100.00
46087;BME280;31824;49.648;8.640;2023-02-01T08:32:46;100929.28;;;4.48;100.00
46087;BME280;31824;49.648;8.640;2023-02-01T08:35:47;100930.94;;;4.47;100.00
46087;BME280;31824;49.648;8.640;2023-02-01T08:38:50;100933.63;;;4.54;100.00
46087;BME280;31824;49.648;8.640;2023-02-01T08:41:52;100944.03;;;4.54;100.00
46087;BME280;31824;49.648;8.640;2023-02-01T08:45:14;100942.72;;;4.58;100.00
46087;BME280;31824;49.648;8.640;2023-02-01T08:48:16;100943.19;;;4.68;100.00
46087;BME280;31824;49.648;8.640;2023-02-01T08:51:19;100937.91;;;4.88;100.00
46087;BME280;31824;49.648;8.640;2023-02-01T08:54:22;100933.09;;;4.99;100.00
46087;BME280;31824;49.648;8.640;2023-02-01T08:57:24;100943.16;;;5.03;100.00
46087;BME280;31824;49.648;8.640;2023-02-01T09:00:27;100944.31;;;5.12;100.00
46087;BME280;31824;49.648;8.640;2023-02-01T09:03:28;100947.91;;;5.20;100.00
46087;BME280;31824;49.648;8.640;2023-02-01T09:06:30;100947.72;;;5.18;100.00
46087;BME280;31824;49.648;8.640;2023-02-01T09:09:32;100949.78;;;5.21;100.00
46087;BME280;31824;49.648;8.640;2023-02-01T09:12:34;100942.88;;;5.21;100.00
46087;BME280;31824;49.648;8.640;2023-02-01T09:15:38;100938.66;;;5.36;100.00
46087;BME280;31824;49.648;8.640;2023-02-01T09:18:40;100944.78;;;5.30;100.00
46087;BME280;31824;49.648;8.640;2023-02-01T09:21:57;100947.19;;;5.28;100.00
46087;BME280;31824;49.648;8.640;2023-02-01T09:25:03;100953.38;;;5.36;100.00
46087;BME280;31824;49.648;8.640;2023-02-01T09:28:08;100961.75;;;5.48;100.00
46087;BME280;31824;49.648;8.640;2023-02-01T09:31:12;100953.22;;;5.49;100.00
46087;BME280;31824;49.648;8.640;2023-02-01T09:34:15;100960.28;;;5.50;100.00
46087;BME280;31824;49.648;8.640;2023-02-01T09:37:18;100955.31;;;5.66;100.00
46087;BME280;31824;49.648;8.640;2023-02-01T09:40:20;100948.03;;;5.63;100.00
46087;BME280;31824;49.648;8.640;2023-02-01T09:43:33;100967.03;;;5.62;100.00
46087;BME280;31824;49.648;8.640;2023-02-01T09:46:45;100980.63;;;5.67;100.00
46087;BME280;31824;49.648;8.640;2023-02-01T09:49:52;100992.56;;;5.72;100.00
46087;BME280;31824;49.648;8.640;2023-02-01T09:52:59;100997.63;;;5.85;100.00
46087;BME280;31824;49.648;8.640;2023-02-01T09:56:10;101003.22;;;5.95;100.00
46087;BME280;31824;49.648;8.640;2023-02-01T09:59:23;101008.44;;;5.95;100.00
46087;BME280;31824;49.648;8.640;2023-02-01T10:02:29;101015.66;;;5.83;100.00
46087;BME280;31824;49.648;8.640;2023-02-01T10:06:13;101010.50;;;5.90;100.00
46087;BME280;31824;49.648;8.640;2023-02-01T10:09:46;101009.97;;;6.00;100.00
46087;BME280;31824;49.648;8.640;2023-02-01T10:13:30;101013.72;;;6.10;100.00
46087;BME280;31824;49.648;8.640;2023-02-01T10:16:59;101018.13;;;5.89;100.00
46087;BME280;31824;49.648;8.640;2023-02-01T10:20:26;101020.44;;;6.15;100.00
46087;BME280;31824;49.648;8.640;2023-02-01T10:24:11;101008.16;;;6.14;100.00
46087;BME280;31824;49.648;8.640;2023-02-01T10:27:38;101009.59;;;5.97;100.00
46087;BME280;31824;49.648;8.640;2023-02-01T10:31:01;101006.09;;;6.11;100.00
46087;BME280;31824;49.648;8.640;2023-02-01T10:34:26;100998.63;;;6.07;100.00
46087;BME280;31824;49.648;8.640;2023-02-01T10:37:48;101009.25;;;6.16;100.00
46087;BME280;31824;49.648;8.640;2023-02-01T10:41:12;100988.19;;;6.14;100.00
46087;BME280;31824;49.648;8.640;2023-02-01T10:44:40;100987.09;;;6.27;100.00
46087;BME280;31824;49.648;8.640;2023-02-01T10:50:54;100986.69;;;6.09;100.00
46087;BME280;31824;49.648;8.640;2023-02-01T10:54:03;100977.78;;;6.29;100.00
46087;BME280;31824;49.648;8.640;2023-02-01T10:57:07;100973.47;;;6.29;100.00
46087;BME280;31824;49.648;8.640;2023-02-01T11:00:19;100966.38;;;6.28;100.00
46087;BME280;31824;49.648;8.640;2023-02-01T11:03:22;100967.50;;;6.52;100.00
46087;BME280;31824;49.648;8.640;2023-02-01T11:06:36;100947.22;;;6.42;100.00
46087;BME280;31824;49.648;8.640;2023-02-01T11:09:57;100942.91;;;6.35;100.00
46087;BME280;31824;49.648;8.640;2023-02-01T11:13:04;100942.13;;;6.58;100.00
46087;BME280;31824;49.648;8.640;2023-02-01T11:16:06;100931.50;;;6.64;100.00
46087;BME280;31824;49.648;8.640;2023-02-01T11:19:14;100919.56;;;6.51;100.00
46087;BME280;31824;49.648;8.640;2023-02-01T11:22:18;100924.97;;;6.67;100.00
46087;BME280;31824;49.648;8.640;2023-02-01T11:25:21;100930.94;;;6.73;100.00
46087;BME280;31824;49.648;8.640;2023-02-01T11:28:26;100927.94;;;6.63;100.00
46087;BME280;31824;49.648;8.640;2023-02-01T11:31:32;100942.53;;;6.61;100.00
46087;BME280;31824;49.648;8.640;2023-02-01T11:34:36;100936.19;;;6.52;100.00
46087;BME280;31824;49.648;8.640;2023-02-01T11:37:42;100936.53;;;6.55;100.00
46087;BME280;31824;49.648;8.640;2023-02-01T11:40:45;100923.44;;;6.76;100.00
46087;BME280;31824;49.648;8.640;2023-02-01T11:43:52;100933.88;;;6.91;100.00
46087;BME280;31824;49.648;8.640;2023-02-01T11:46:54;100919.50;;;6.87;100.00
46087;BME280;31824;49.648;8.640;2023-02-01T11:50:00;100918.38;;;6.85;100.00
46087;BME280;31824;49.648;8.640;2023-02-01T11:53:15;100930.50;;;6.85;100.00
46087;BME280;31824;49.648;8.640;2023-02-01T11:56:27;100926.59;;;6.88;100.00
46087;BME280;31824;49.648;8.640;2023-02-01T11:59:47;100928.09;;;6.93;100.00
46087;BME280;31824;49.648;8.640;2023-02-01T12:03:08;100923.81;;;6.80;100.00
46087;BME280;31824;49.648;8.640;2023-02-01T12:06:19;100941.72;;;6.76;100.00
46087;BME280;31824;49.648;8.640;2023-02-01T12:09:45;100923.66;;;6.71;100.00
46087;BME280;31824;49.648;8.640;2023-02-01T12:12:56;100946.19;;;6.70;100.00
46087;BME280;31824;49.648;8.640;2023-02-01T12:16:13;100926.31;;;6.49;100.00
46087;BME280;31824;49.648;8.640;2023-02-01T12:19:41;100940.66;;;6.60;100.00
46087;BME280;31824;49.648;8.640;2023-02-01T12:22:55;100927.78;;;6.62;100.00
46087;BME280;31824;49.648;8.640;2023-02-01T12:26:27;100923.13;;;6.59;100.00
46087;BME280;31824;49.648;8.640;2023-02-01T12:29:45;100924.44;;;6.63;100.00
46087;BME280;31824;49.648;8.640;2023-02-01T12:32:59;100924.63;;;6.50;100.00
46087;BME280;31824;49.648;8.640;2023-02-01T12:36:12;100900.94;;;6.63;100.00
46087;BME280;31824;49.648;8.640;2023-02-01T12:39:22;100894.00;;;6.63;100.00
46087;BME280;31824;49.648;8.640;2023-02-01T12:42:29;100900.75;;;6.61;100.00
46087;BME280;31824;49.648;8.640;2023-02-01T12:45:39;100886.59;;;6.52;100.00
46087;BME280;31824;49.648;8.640;2023-02-01T12:48:54;100899.84;;;6.46;100.00
46087;BME280;31824;49.648;8.640;2023-02-01T12:52:00;100896.47;;;6.54;100.00
46087;BME280;31824;49.648;8.640;2023-02-01T12:55:09;100895.38;;;6.45;100.00
46087;BME280;31824;49.648;8.640;2023-02-01T12:58:18;100888.28;;;6.44;100.00
46087;BME280;31824;49.648;8.640;2023-02-01T13:01:26;100882.47;;;6.54;100.00
46087;BME280;31824;49.648;8.640;2023-02-01T13:04:35;100880.56;;;6.67;100.00
46087;BME280;31824;49.648;8.640;2023-02-01T13:07:44;100857.03;;;6.74;100.00
46087;BME280;31824;49.648;8.640;2023-02-01T13:11:00;100840.28;;;6.72;100.00
46087;BME280;31824;49.648;8.640;2023-02-01T13:14:14;100847.91;;;6.78;100.00
46087;BME280;31824;49.648;8.640;2023-02-01T13:17:22;100846.25;;;6.79;100.00
46087;BME280;31824;49.648;8.640;2023-02-01T13:20:30;100842.50;;;6.76;100.00
46087;BME280;31824;49.648;8.640;2023-02-01T13:23:37;100833.75;;;6.76;100.00
46087;BME280;31824;49.648;8.640;2023-02-01T13:26:40;100834.53;;;6.68;100.00
46087;BME280;31824;49.648;8.640;2023-02-01T13:29:50;100833.19;;;6.71;100.00
46087;BME280;31824;49.648;8.640;2023-02-01T13:33:22;100847.22;;;6.57;100.00
46087;BME280;31824;49.648;8.640;2023-02-01T13:36:58;100837.13;;;6.61;100.00
46087;BME280;31824;49.648;8.640;2023-02-01T13:40:16;100823.94;;;6.52;100.00
46087;BME280;31824;49.648;8.640;2023-02-01T13:43:27;100842.56;;;6.55;100.00
46087;BME280;31824;49.648;8.640;2023-02-01T13:46:38;100841.44;;;6.60;100.00
46087;BME280;31824;49.648;8.640;2023-02-01T13:49:41;100838.09;;;6.61;100.00
46087;BME280;31824;49.648;8.640;2023-02-01T13:52:44;100841.44;;;6.60;100.00
46087;BME280;31824;49.648;8.640;2023-02-01T13:55:55;100849.84;;;6.57;100.00
46087;BME280;31824;49.648;8.640;2023-02-01T14:06:40;100863.84;;;6.51;100.00
46087;BME280;31824;49.648;8.640;2023-02-01T14:09:43;100857.84;;;6.59;100.00
46087;BME280;31824;49.648;8.640;2023-02-01T14:12:47;100867.19;;;6.57;100.00
46087;BME280;31824;49.648;8.640;2023-02-01T14:16:12;100859.91;;;6.62;100.00
46087;BME280;31824;49.648;8.640;2023-02-01T14:19:20;100850.75;;;6.58;100.00
46087;BME280;31824;49.648;8.640;2023-02-01T14:22:34;100857.28;;;6.62;100.00
46087;BME280;31824;49.648;8.640;2023-02-01T14:25:36;100851.88;;;6.60;100.00
46087;BME280;31824;49.648;8.640;2023-02-01T14:28:43;100857.66;;;6.57;100.00
46087;BME280;31824;49.648;8.640;2023-02-01T14:31:58;100857.28;;;6.62;100.00
46087;BME280;31824;49.648;8.640;2023-02-01T14:35:06;100855.41;;;6.61;100.00
46087;BME280;31824;49.648;8.640;2023-02-01T14:38:10;100855.25;;;6.59;100.00
46087;BME280;31824;49.648;8.640;2023-02-01T14:41:29;100846.09;;;6.63;100.00
46087;BME280;31824;49.648;8.640;2023-02-01T14:44:36;100845.19;;;6.55;100.00
46087;BME280;31824;49.648;8.640;2023-02-01T14:51:35;100847.97;;;6.56;100.00
46087;BME280;31824;49.648;8.640;2023-02-01T14:54:39;100840.53;;;6.59;100.00
46087;BME280;31824;49.648;8.640;2023-02-01T14:57:43;100846.84;;;6.62;100.00
46087;BME280;31824;49.648;8.640;2023-02-01T15:00:49;100848.16;;;6.65;100.00
46087;BME280;31824;49.648;8.640;2023-02-01T15:03:58;100856.19;;;6.59;100.00
46087;BME280;31824;49.648;8.640;2023-02-01T15:07:06;100843.84;;;6.66;100.00
46087;BME280;31824;49.648;8.640;2023-02-01T15:10:15;100851.31;;;6.55;100.00
46087;BME280;31824;49.648;8.640;2023-02-01T15:13:21;100842.53;;;6.69;100.00
46087;BME280;31824;49.648;8.640;2023-02-01T15:16:24;100852.03;;;6.69;100.00
46087;BME280;31824;49.648;8.640;2023-02-01T15:19:29;100833.53;;;6.74;100.00
46087;BME280;31824;49.648;8.640;2023-02-01T15:22:32;100835.97;;;6.73;100.00
46087;BME280;31824;49.648;8.640;2023-02-01T15:25:37;100836.31;;;6.83;100.00
46087;BME280;31824;49.648;8.640;2023-02-01T15:28:40;100836.66;;;6.86;100.00
46087;BME280;31824;49.648;8.640;2023-02-01T15:31:44;100832.00;;;6.91;100.00
46087;BME280;31824;49.648;8.640;2023-02-01T15:34:48;100839.63;;;6.89;100.00
46087;BME280;31824;49.648;8.640;2023-02-01T15:37:50;100841.72;;;6.85;100.00
46087;BME280;31824;49.648;8.640;2023-02-01T15:40:57;100852.34;;;6.86;100.00
46087;BME280;31824;49.648;8.640;2023-02-01T15:44:17;100853.81;;;6.91;100.00
46087;BME280;31824;49.648;8.640;2023-02-01T15:49:39;100855.06;;;7.02;100.00
46087;BME280;31824;49.648;8.640;2023-02-01T15:52:42;100857.28;;;7.06;100.00
46087;BME280;31824;49.648;8.640;2023-02-01T15:55:43;100864.00;;;7.04;100.00
46087;BME280;31824;49.648;8.640;2023-02-01T15:58:53;100847.22;;;7.02;100.00
46087;BME280;31824;49.648;8.640;2023-02-01T16:01:56;100853.78;;;6.99;100.00
46087;BME280;31824;49.648;8.640;2023-02-01T16:04:59;100853.81;;;6.91;100.00
46087;BME280;31824;49.648;8.640;2023-02-01T16:08:09;100845.81;;;6.90;100.00
46087;BME280;31824;49.648;8.640;2023-02-01T16:11:22;100851.81;;;6.74;100.00
46087;BME280;31824;49.648;8.640;2023-02-01T16:14:25;100837.31;;;6.69;100.00
46087;BME280;31824;49.648;8.640;2023-02-01T16:17:27;100842.88;;;6.72;100.00
46087;BME280;31824;49.648;8.640;2023-02-01T16:20:30;100846.81;;;6.76;100.00
46087;BME280;31824;49.648;8.640;2023-02-01T16:23:34;100848.69;;;6.70;100.00
46087;BME280;31824;49.648;8.640;2023-02-01T16:26:36;100849.81;;;6.65;100.00
46087;BME280;31824;49.648;8.640;2023-02-01T16:29:39;100842.94;;;6.65;100.00
46087;BME280;31824;49.648;8.640;2023-02-01T16:32:43;100846.31;;;6.50;100.00
46087;BME280;31824;49.648;8.640;2023-02-01T16:35:46;100851.72;;;6.58;100.00
46087;BME280;31824;49.648;8.640;2023-02-01T16:38:48;100854.69;;;6.62;100.00